Sapphire, NC (28774)

4:43 PM EDT on August 22, 2014 (GMT -0400)
Lake Toxaway | Change Station
CLOSE
Current Station
Personal Weather Station
Location: Lake Toxaway, NC
Elevation: 3104 ft
Nearby Weather Stations
Active Advisory: Special Statement

Elev 3104 ft 35.15 °N, 82.95 °W | Updated 11 minutes ago

Partly Cloudy
Partly Cloudy
83.2 °F
Feels Like 85 °F
N
3.0
Wind Variable Wind from NNE

Today
High -- | Low -- °F
--% Chance of Precip.
Yesterday
High -- | Low -- °F
Precip. -- in
6:57 AM 8:11 PM
Waning Crescent, 7% visible
Pressure 30.00 in
Visibility 10.0 miles
Clouds Few 5000 ft
Heat Index 85 °F
Dew Point 65 °F
Humidity 55%
Rainfall 0.00 in
Snow Depth Not available.
UV 7 out of 12
Pollen 8.60 out of 12
Ozone Good
PM2.5 Good
Flu Activity Not available.
METAR KAVL 221954Z AUTO 36007KT 310V020 10SM FEW050 31/18 A3009 RMK AO2 SLP159 T03060178

More Conditions Fewer Conditions

Pressure 30.00 in
Visibility 10.0 miles
Clouds Few 5000 ft
Heat Index 85 °F
Dew Point 65 °F
Humidity 55%
Rainfall 0.00 in
Snow Depth Not available.
UV 7 out of 12
Pollen 8.60 out of 12
Ozone Good
PM2.5 Good
Flu Activity Not available.
METAR KAVL 221954Z AUTO 36007KT 310V020 10SM FEW050 31/18 A3009 RMK AO2 SLP159 T03060178

More Conditions Fewer Conditions

10-Day Weather Forecast

Almanac

Astronomy

Aug. 22, 2014 Rise Set
Actual Time 6:57 AM EDT 8:11 PM EDT
Civil Twilight 6:30 AM EDT 8:38 PM EDT
Nautical Twilight 5:59 AM EDT 9:09 PM EDT
Astronomical Twilight 5:26 AM EDT 9:42 PM EDT
Moon 4:21 AM EDT 6:17 PM EDT
Length of Visible Light 14h 07m
Length of Day
13h 14m
Tomorrow will be 2m 1s shorter.
Waning Crescent, 7% of the Moon is Illuminated
Today
Waning Crescent
Aug 25
New
Sep 2
First Quarter
Sep 8
Full
Sep 15
Last Quarter

Today's Extremes

State Highs State Lows

Community

WunderPhotos

Upload Photos

1,746,245 photos uploaded!

Nearby

Air Quality

  Air Quality AQ Index Pollutant
Yesterday Good
PM2.5
Yesterday Good
OZONE
Current Good
PM2.5
Current Good
OZONE
Friday Good
PM2.5
Friday Good
OZONE
Saturday Good
PM2.5
Saturday Good
OZONE
Sunday Good
PM2.5
Sunday Good
OZONE
Monday Good
PM2.5
Monday Good
OZONE

Snow Depth

Station Depth Elevation
No new snow has been reported.

Earthquake Activity

City Distance Mag. Time & Date
No recent earthquake activity has been reported nearby.
Minimum magnitude displayed is 2.5.

Coastal Water Temperatures

Place Temperature
No Stations Reporting

Nearby Weather Stations